Time;durP1;ratioP1;P1;durP2;ratioP2;P2;SDS_P1;SDS_P2;PMS_P1;PMS_P2;Temp;Humidity;BMP_temperature;BMP_pressure;BME280_temperature;BME280_humidity;BME280_pressure;Samples;Min_cycle;Max_cycle;Signal;HPM_P1;HPM_P2
2023/12/16 00:00:40;;;;;;;13.03;6.63;;;;;;;6.53;68.11;103388.53;5041708;27;97339;-52
2023/12/16 00:03:05;;;;;;;20.00;7.70;;;;;;;6.52;67.99;103393.25;5040018;27;97034;-52
2023/12/16 00:05:30;;;;;;;13.33;7.10;;;;;;;6.50;68.19;103401.16;5040237;27;96851;-52
2023/12/16 00:07:56;;;;;;;15.67;7.03;;;;;;;6.50;67.99;103390.16;5038172;27;97380;-52
2023/12/16 00:10:21;;;;;;;14.17;6.37;;;;;;;6.50;68.05;103394.88;5040349;27;97110;-52
2023/12/16 00:12:47;;;;;;;15.07;6.63;;;;;;;6.50;68.07;103401.16;5039892;27;96760;-52
2023/12/16 00:15:14;;;;;;;14.30;5.30;;;;;;;6.51;68.13;103401.91;5040419;27;97170;-52
2023/12/16 00:17:39;;;;;;;10.67;5.87;;;;;;;6.52;68.08;103406.22;5037685;27;97372;-52
2023/12/16 00:20:05;;;;;;;10.17;5.87;;;;;;;6.51;67.98;103405.44;5039826;27;97772;-52
2023/12/16 00:22:30;;;;;;;11.50;6.10;;;;;;;6.51;68.06;103408.19;5038155;27;97036;-52
2023/12/16 00:24:56;;;;;;;14.57;5.87;;;;;;;6.51;68.04;103413.72;5038329;27;97088;-52
2023/12/16 00:27:22;;;;;;;13.20;5.97;;;;;;;6.47;68.01;103407.50;5036468;27;97775;-52
2023/12/16 00:29:47;;;;;;;14.83;5.27;;;;;;;6.49;68.02;103413.34;5038238;27;96937;-52
2023/12/16 00:32:12;;;;;;;14.03;6.40;;;;;;;6.49;68.07;103412.56;5037839;27;97323;-52
2023/12/16 00:34:38;;;;;;;16.27;6.90;;;;;;;6.50;68.06;103417.66;5038752;27;96693;-52
2023/12/16 00:37:06;;;;;;;12.90;5.20;;;;;;;6.48;68.07;103402.78;5038871;27;108940;-52
2023/12/16 00:39:34;;;;;;;14.33;6.50;;;;;;;6.48;68.03;103409.03;5040200;27;97796;-52
2023/12/16 00:41:59;;;;;;;19.53;6.70;;;;;;;6.44;68.16;103400.06;5038494;27;97028;-52
2023/12/16 00:44:25;;;;;;;26.77;7.23;;;;;;;6.44;68.12;103391.81;5042334;27;97574;-52
2023/12/16 00:46:50;;;;;;;20.00;6.23;;;;;;;6.41;68.27;103384.44;5039043;27;97032;-52
2023/12/16 00:49:15;;;;;;;23.80;7.57;;;;;;;6.40;68.04;103390.34;5041834;27;97121;-52
2023/12/16 00:51:41;;;;;;;14.00;5.77;;;;;;;6.38;68.20;103393.50;5040805;27;98390;-52
2023/12/16 00:54:07;;;;;;;11.70;5.93;;;;;;;6.38;68.19;103395.47;5039436;27;97061;-52
2023/12/16 00:56:32;;;;;;;15.20;5.50;;;;;;;6.37;68.16;103389.22;5037806;27;98602;-52
2023/12/16 00:58:58;;;;;;;8.00;6.03;;;;;;;6.37;68.12;103389.22;5040420;27;96613;-52
2023/12/16 01:01:23;;;;;;;14.43;6.00;;;;;;;6.37;68.09;103391.97;5042019;27;97128;-52
2023/12/16 01:03:48;;;;;;;12.80;6.40;;;;;;;6.37;68.14;103397.47;5040805;27;97442;-52
2023/12/16 01:06:14;;;;;;;16.00;6.60;;;;;;;6.36;68.04;103395.91;5039587;27;105632;-52
2023/12/16 01:08:39;;;;;;;14.93;5.80;;;;;;;6.36;68.02;103389.63;5041042;27;97275;-52
2023/12/16 01:11:05;;;;;;;14.07;5.97;;;;;;;6.36;68.14;103400.63;5041266;27;105689;-52
2023/12/16 01:13:31;;;;;;;16.40;5.90;;;;;;;6.33;68.20;103394.00;5040885;27;96867;-52
2023/12/16 01:15:56;;;;;;;10.83;5.60;;;;;;;6.33;68.08;103389.28;5038999;27;98713;-52
2023/12/16 01:18:21;;;;;;;15.63;6.00;;;;;;;6.33;68.22;103386.53;5041016;27;97717;-52
2023/12/16 01:20:47;;;;;;;16.90;6.33;;;;;;;6.33;68.11;103383.78;5039475;27;97488;-52
2023/12/16 01:23:12;;;;;;;12.67;5.80;;;;;;;6.33;68.11;103397.53;5040843;27;96974;-52
2023/12/16 01:25:38;;;;;;;15.83;5.50;;;;;;;6.32;68.17;103397.94;5041790;27;97525;-52
2023/12/16 01:28:03;;;;;;;15.87;5.93;;;;;;;6.32;68.13;103393.25;5039802;27;97082;-52
2023/12/16 01:30:29;;;;;;;13.23;5.70;;;;;;;6.30;68.13;103387.38;5039617;27;97203;-52
2023/12/16 01:32:54;;;;;;;10.40;5.10;;;;;;;6.30;68.06;103394.84;5039410;27;97355;-52
2023/12/16 01:35:19;;;;;;;12.90;6.50;;;;;;;6.30;68.22;103392.88;5040608;27;108422;-52
2023/12/16 01:37:44;;;;;;;10.67;5.90;;;;;;;6.29;68.31;103405.06;5040618;27;97576;-52
2023/12/16 01:40:10;;;;;;;11.20;5.90;;;;;;;6.30;68.24;103398.38;5040904;27;100778;-52
2023/12/16 01:42:36;;;;;;;12.03;5.77;;;;;;;6.33;68.31;103405.00;5039669;27;97222;-52
2023/12/16 01:45:01;;;;;;;15.03;6.27;;;;;;;6.34;68.32;103401.06;5034925;27;97931;-52
2023/12/16 01:47:27;;;;;;;16.30;6.20;;;;;;;6.36;68.12;103400.63;5040737;27;96972;-52
2023/12/16 01:49:52;;;;;;;10.00;5.57;;;;;;;6.36;68.07;103397.88;5039181;27;97147;-52
2023/12/16 01:52:19;;;;;;;8.90;5.90;;;;;;;6.37;68.26;103407.69;5038401;27;97006;-52
2023/12/16 01:54:44;;;;;;;12.67;5.53;;;;;;;6.37;68.27;103404.94;5040091;27;98563;-52
2023/12/16 01:57:10;;;;;;;13.30;6.50;;;;;;;6.38;68.17;103407.25;5040282;27;97086;-52
2023/12/16 01:59:35;;;;;;;13.40;5.83;;;;;;;6.39;68.07;103400.59;5040310;27;97263;-52
2023/12/16 02:02:02;;;;;;;18.17;5.90;;;;;;;6.40;68.17;103402.13;5040280;27;97227;-52
2023/12/16 02:04:27;;;;;;;13.80;5.97;;;;;;;6.43;68.07;103406.00;5039113;27;97198;-52
2023/12/16 02:06:52;;;;;;;15.03;6.30;;;;;;;6.43;68.27;103408.75;5039686;27;97129;-52
2023/12/16 02:09:19;;;;;;;13.53;5.67;;;;;;;6.44;68.10;103413.06;5037200;27;97266;-52
2023/12/16 02:11:45;;;;;;;12.83;5.50;;;;;;;6.47;67.96;103413.00;5037968;27;97264;-52
2023/12/16 02:14:10;;;;;;;10.13;5.10;;;;;;;6.45;67.75;103404.41;5038709;27;99911;-52
2023/12/16 02:16:36;;;;;;;16.43;5.43;;;;;;;6.48;67.95;103409.03;5019631;27;98973;-52
2023/12/16 02:19:03;;;;;;;9.07;5.03;;;;;;;6.49;67.88;103409.81;5039770;27;97197;-52
2023/12/16 02:21:28;;;;;;;11.73;5.87;;;;;;;6.52;68.02;103414.50;5040850;27;97105;-52
2023/12/16 02:23:53;;;;;;;13.03;5.50;;;;;;;6.50;67.84;103405.88;5037323;27;98635;-52
2023/12/16 02:26:19;;;;;;;11.90;5.77;;;;;;;6.51;67.85;103408.19;5038267;27;97108;-52
2023/12/16 02:28:44;;;;;;;18.43;5.40;;;;;;;6.52;67.81;103403.47;5020955;27;97447;-52
2023/12/16 02:31:09;;;;;;;6.47;4.80;;;;;;;6.53;67.88;103403.06;5037916;27;107022;-52
2023/12/16 02:33:35;;;;;;;12.77;4.67;;;;;;;6.55;67.75;103414.41;5043719;27;96904;-52
2023/12/16 02:36:00;;;;;;;15.23;4.80;;;;;;;6.55;67.76;103408.91;5043407;27;100236;-52
2023/12/16 02:38:26;;;;;;;10.03;4.10;;;;;;;6.57;67.77;103416.75;5043549;27;96710;-52
2023/12/16 02:40:51;;;;;;;10.90;4.40;;;;;;;6.60;67.71;103422.19;5042205;27;97089;-52
2023/12/16 02:43:17;;;;;;;8.03;4.77;;;;;;;6.61;67.54;103426.50;5042503;27;97102;-52
2023/12/16 02:45:42;;;;;;;8.97;3.93;;;;;;;6.61;67.58;103417.50;5043697;27;97147;-52
2023/12/16 02:48:07;;;;;;;7.30;4.00;;;;;;;6.61;67.45;103418.25;5041715;27;96910;-52
2023/12/16 02:50:32;;;;;;;7.57;3.83;;;;;;;6.61;67.46;103412.75;5042264;27;98524;-52
2023/12/16 02:52:59;;;;;;;8.50;4.70;;;;;;;6.60;67.49;103411.19;5041871;27;112510;-52
2023/12/16 02:55:25;;;;;;;12.33;3.60;;;;;;;6.62;67.43;103414.31;5041806;27;97690;-52
2023/12/16 02:57:50;;;;;;;15.67;3.23;;;;;;;6.62;67.32;103414.31;5041124;27;97417;-52
2023/12/16 03:00:15;;;;;;;8.60;3.60;;;;;;;6.63;67.24;103415.88;5041757;27;102409;-52
2023/12/16 03:02:41;;;;;;;8.30;3.03;;;;;;;6.63;67.32;103412.34;5042429;27;97327;-52
2023/12/16 03:05:06;;;;;;;7.30;4.00;;;;;;;6.63;67.28;103415.88;5042476;27;97107;-52
2023/12/16 03:07:32;;;;;;;11.67;3.50;;;;;;;6.63;67.28;103410.38;5042339;27;96654;-52
2023/12/16 03:09:58;;;;;;;10.63;3.23;;;;;;;6.64;67.13;103411.91;5042731;27;96757;-52
2023/12/16 03:12:24;;;;;;;4.03;2.63;;;;;;;6.64;67.38;103406.41;5041413;27;97270;-52
2023/12/16 03:14:50;;;;;;;4.90;2.70;;;;;;;6.66;67.21;103397.72;5042606;27;97593;-52
2023/12/16 03:17:16;;;;;;;8.80;3.00;;;;;;;6.65;67.08;103393.44;5041928;27;97128;-52
2023/12/16 03:19:41;;;;;;;9.20;3.13;;;;;;;6.63;67.22;103399.38;5023663;27;97152;-52
2023/12/16 03:22:07;;;;;;;7.93;2.93;;;;;;;6.65;67.17;103412.69;5041725;27;97307;-52
2023/12/16 03:24:32;;;;;;;6.83;3.10;;;;;;;6.65;67.08;103421.75;5042431;27;96819;-52
2023/12/16 03:26:58;;;;;;;8.83;3.07;;;;;;;6.65;67.28;103412.69;5042684;27;96917;-52
2023/12/16 03:29:23;;;;;;;8.90;3.67;;;;;;;6.65;67.09;103416.25;5041692;27;97110;-52
2023/12/16 03:31:49;;;;;;;10.23;3.50;;;;;;;6.67;67.03;103410.31;5042349;27;97743;-52
2023/12/16 03:34:14;;;;;;;7.63;3.00;;;;;;;6.66;67.02;103409.53;5038889;27;97056;-52
2023/12/16 03:36:39;;;;;;;10.67;3.57;;;;;;;6.66;67.00;103408.72;5042817;27;96749;-52
2023/12/16 03:39:05;;;;;;;7.97;2.77;;;;;;;6.65;67.02;103405.22;5042287;27;101748;-52
2023/12/16 03:41:30;;;;;;;6.07;2.80;;;;;;;6.67;67.01;103402.03;5041166;27;98493;-52
2023/12/16 03:43:55;;;;;;;7.10;3.30;;;;;;;6.67;66.97;103410.31;5040726;27;98593;-52
2023/12/16 03:46:21;;;;;;;7.40;3.00;;;;;;;6.68;66.87;103389.81;5041631;27;105845;-52
2023/12/16 03:48:47;;;;;;;5.40;2.27;;;;;;;6.67;66.98;103394.56;5040161;27;97217;-52
2023/12/16 03:51:12;;;;;;;6.50;2.90;;;;;;;6.67;66.84;103389.06;5041370;27;100337;-52
2023/12/16 03:53:37;;;;;;;5.87;2.27;;;;;;;6.67;66.76;103391.03;5042985;27;97211;-52
2023/12/16 03:56:03;;;;;;;8.00;2.70;;;;;;;6.66;66.90;103393.00;5040769;27;104094;-52
2023/12/16 03:58:29;;;;;;;7.67;2.90;;;;;;;6.66;66.86;103384.75;5039744;27;96935;-52
2023/12/16 04:00:54;;;;;;;7.00;2.77;;;;;;;6.65;66.85;103385.19;5038026;27;97781;-52
2023/12/16 04:03:19;;;;;;;8.20;2.40;;;;;;;6.66;66.76;103375.72;5041490;27;106604;-52
2023/12/16 04:05:45;;;;;;;6.80;2.80;;;;;;;6.67;66.76;103369.03;5041840;27;97426;-52
2023/12/16 04:08:10;;;;;;;6.77;3.00;;;;;;;6.66;66.46;103373.75;5041845;27;96767;-52
2023/12/16 04:10:35;;;;;;;6.97;2.60;;;;;;;6.67;66.76;103372.56;5041532;27;97125;-52
2023/12/16 04:13:01;;;;;;;8.13;2.50;;;;;;;6.65;66.58;103369.47;5041328;27;100746;-52
2023/12/16 04:15:26;;;;;;;4.13;2.33;;;;;;;6.63;66.59;103377.38;5038774;27;104932;-52
2023/12/16 04:17:52;;;;;;;6.57;2.43;;;;;;;6.66;66.59;103373.75;5039210;27;97307;-52
2023/12/16 04:20:17;;;;;;;6.67;2.90;;;;;;;6.66;66.55;103376.50;5041939;27;97785;-52
2023/12/16 04:22:43;;;;;;;6.77;2.60;;;;;;;6.64;66.59;103378.13;5040135;27;97156;-52
2023/12/16 04:25:11;;;;;;;7.87;3.10;;;;;;;6.68;66.46;103379.59;5042499;27;97145;-52
2023/12/16 04:27:37;;;;;;;3.13;2.37;;;;;;;6.70;66.33;103385.47;5041151;27;96681;-51
2023/12/16 04:30:03;;;;;;;12.80;2.90;;;;;;;6.67;66.33;103383.56;5042272;27;97662;-51
2023/12/16 04:32:29;;;;;;;5.27;1.90;;;;;;;6.69;66.36;103386.69;5039036;27;98841;-51
2023/12/16 04:34:54;;;;;;;5.63;2.50;;;;;;;6.69;66.16;103394.94;5042477;27;97313;-50
2023/12/16 04:37:20;;;;;;;5.90;2.10;;;;;;;6.71;66.26;103394.50;5041292;27;97174;-52
2023/12/16 04:39:45;;;;;;;7.07;2.07;;;;;;;6.71;66.30;103405.50;5039784;27;97532;-51
2023/12/16 04:42:11;;;;;;;9.57;2.70;;;;;;;6.70;66.19;103399.22;5040308;27;111707;-51
2023/12/16 04:44:37;;;;;;;4.03;2.17;;;;;;;6.72;66.07;103404.31;5041425;27;97312;-51
2023/12/16 04:47:03;;;;;;;6.87;2.10;;;;;;;6.76;65.99;103411.31;5040157;27;97366;-51
2023/12/16 04:49:28;;;;;;;4.83;1.90;;;;;;;6.74;66.15;103405.44;5035156;27;97376;-51
2023/12/16 04:51:54;;;;;;;9.23;2.40;;;;;;;6.76;66.03;103407.78;5039327;27;107029;-51
2023/12/16 04:54:19;;;;;;;8.83;2.10;;;;;;;6.76;65.93;103414.06;5019200;27;96971;-51
2023/12/16 04:56:45;;;;;;;5.57;1.90;;;;;;;6.79;66.01;103426.16;5041091;27;99985;-51
2023/12/16 04:59:10;;;;;;;3.00;1.67;;;;;;;6.78;65.99;103435.63;5040096;27;98195;-51
2023/12/16 05:01:36;;;;;;;4.93;2.03;;;;;;;6.76;66.04;103440.78;5038937;27;97263;-51
2023/12/16 05:04:01;;;;;;;7.83;2.50;;;;;;;6.74;65.90;103443.94;5039647;27;96985;-51
2023/12/16 05:06:26;;;;;;;5.13;1.90;;;;;;;6.72;65.87;103457.34;5037470;27;97081;-51
2023/12/16 05:08:52;;;;;;;4.90;1.70;;;;;;;6.73;66.12;103453.41;5038055;27;98924;-52
2023/12/16 05:11:17;;;;;;;4.93;1.90;;;;;;;6.73;65.90;103452.63;5038065;27;96908;-51
2023/12/16 05:13:43;;;;;;;7.83;1.80;;;;;;;6.74;65.84;103445.94;5038266;27;97116;-51
2023/12/16 05:16:08;;;;;;;6.90;1.83;;;;;;;6.76;65.80;103452.59;5042057;27;97131;-52
2023/12/16 05:18:34;;;;;;;6.90;2.20;;;;;;;6.77;65.87;103448.63;5039794;27;105530;-51
2023/12/16 05:20:59;;;;;;;4.97;1.93;;;;;;;6.80;65.72;103450.53;5039252;27;97446;-51
2023/12/16 05:23:24;;;;;;;4.67;2.40;;;;;;;6.79;65.61;103440.72;5039120;27;102110;-52
2023/12/16 05:25:49;;;;;;;8.00;1.57;;;;;;;6.81;65.50;103445.81;5040962;27;97362;-52
2023/12/16 05:28:15;;;;;;;8.70;2.27;;;;;;;6.81;65.62;103445.81;5040257;27;103905;-51
2023/12/16 05:30:40;;;;;;;5.60;1.70;;;;;;;6.80;65.59;103450.53;5037593;27;102106;-51
2023/12/16 05:33:05;;;;;;;5.40;1.70;;;;;;;6.79;65.47;103443.47;5037717;27;102816;-51
2023/12/16 05:35:31;;;;;;;3.13;1.33;;;;;;;6.78;65.54;103441.94;5037249;27;97192;-52
2023/12/16 05:37:57;;;;;;;8.00;1.97;;;;;;;6.78;65.40;103441.94;5040850;27;96928;-52
2023/12/16 05:40:22;;;;;;;6.50;1.67;;;;;;;6.78;65.40;103441.16;5041178;27;97073;-52
2023/12/16 05:42:48;;;;;;;4.60;1.77;;;;;;;6.77;65.25;103443.13;5038588;27;100476;-52
2023/12/16 05:45:13;;;;;;;4.03;1.63;;;;;;;6.77;65.32;103448.63;5040391;27;96873;-51
2023/12/16 05:47:39;;;;;;;6.53;1.83;;;;;;;6.77;65.27;103451.38;5038355;27;97442;-52
2023/12/16 05:50:05;;;;;;;7.63;1.50;;;;;;;6.78;65.17;103443.91;5039360;27;96791;-51
2023/12/16 05:52:31;;;;;;;4.80;1.50;;;;;;;6.78;65.26;103444.69;5038948;27;97049;-50
2023/12/16 05:54:56;;;;;;;4.70;1.73;;;;;;;6.79;65.04;103448.19;5039102;27;97659;-51
2023/12/16 05:57:22;;;;;;;3.67;1.40;;;;;;;6.80;65.16;103447.00;5039220;27;98619;-51
2023/12/16 05:59:47;;;;;;;6.17;1.67;;;;;;;6.82;65.09;103459.13;5038548;27;97387;-52
2023/12/16 06:02:13;;;;;;;5.07;1.90;;;;;;;6.83;65.17;103457.19;5037526;27;107628;-50
2023/12/16 06:04:38;;;;;;;6.37;1.47;;;;;;;6.81;65.41;103465.09;5039131;27;97356;-51
2023/12/16 06:07:03;;;;;;;7.77;1.63;;;;;;;6.76;65.10;103460.84;5042928;27;97323;-51
2023/12/16 06:09:29;;;;;;;2.80;1.47;;;;;;;6.77;65.14;103456.88;5041877;27;97095;-52
2023/12/16 06:11:55;;;;;;;5.57;1.57;;;;;;;6.79;65.13;103461.94;5041449;27;97152;-51
2023/12/16 06:14:21;;;;;;;13.50;2.30;;;;;;;6.77;65.07;103454.13;5041311;27;97279;-52
2023/12/16 06:16:46;;;;;;;4.53;1.60;;;;;;;6.78;65.09;103461.19;5044265;27;96735;-51
2023/12/16 06:19:12;;;;;;;6.00;1.40;;;;;;;6.80;65.04;103458.00;5042232;27;105362;-51
2023/12/16 06:21:37;;;;;;;5.40;1.93;;;;;;;6.81;64.89;103465.84;5042600;27;96790;-52
2023/12/16 06:24:04;;;;;;;7.27;1.77;;;;;;;6.82;64.96;103470.16;5042530;27;97059;-52
2023/12/16 06:26:29;;;;;;;8.17;1.90;;;;;;;6.84;64.82;103477.97;5041224;27;97846;-51
2023/12/16 06:28:54;;;;;;;7.80;2.00;;;;;;;6.81;64.80;103484.34;5043031;27;99423;-52
2023/12/16 06:31:21;;;;;;;4.63;1.80;;;;;;;6.81;64.90;103498.84;5041140;27;97279;-52
2023/12/16 06:33:46;;;;;;;6.87;2.10;;;;;;;6.82;64.86;103486.66;5041806;27;97188;-51
2023/12/16 06:36:12;;;;;;;5.00;1.90;;;;;;;6.80;64.88;103483.56;5043050;27;97381;-51
2023/12/16 06:38:37;;;;;;;8.87;2.20;;;;;;;6.79;64.73;103483.97;5042103;27;97100;-51
2023/12/16 06:41:03;;;;;;;5.80;2.20;;;;;;;6.73;64.68;103480.94;5042652;27;96700;-51
2023/12/16 06:43:29;;;;;;;4.40;1.60;;;;;;;6.71;64.67;103480.56;5043693;27;97297;-51
2023/12/16 06:45:54;;;;;;;3.30;1.57;;;;;;;6.68;64.75;103475.13;5041914;27;97280;-51
2023/12/16 06:48:20;;;;;;;4.67;1.90;;;;;;;6.64;64.63;103466.94;5042403;27;97638;-50
2023/12/16 06:50:46;;;;;;;6.33;1.97;;;;;;;6.63;64.76;103472.88;5043602;27;96897;-51
2023/12/16 06:53:11;;;;;;;7.60;2.20;;;;;;;6.58;64.72;103479.59;5043338;27;96915;-51
2023/12/16 06:55:37;;;;;;;7.80;2.87;;;;;;;6.56;64.62;103470.22;5041105;27;98530;-52
2023/12/16 06:58:02;;;;;;;6.10;2.17;;;;;;;6.51;64.63;103465.97;5041123;27;97307;-51
2023/12/16 07:00:27;;;;;;;9.03;2.90;;;;;;;6.49;64.68;103470.31;5042060;27;97093;-51
2023/12/16 07:02:53;;;;;;;11.40;4.00;;;;;;;6.43;64.79;103474.75;5042125;27;97150;-52
2023/12/16 07:05:18;;;;;;;8.60;3.90;;;;;;;6.40;64.78;103467.34;5041315;27;103973;-51
2023/12/16 07:07:44;;;;;;;13.80;3.33;;;;;;;6.35;64.73;103476.84;5041433;27;101800;-51
2023/12/16 07:10:10;;;;;;;9.73;3.43;;;;;;;6.32;64.82;103463.94;5043868;27;97190;-51
2023/12/16 07:12:35;;;;;;;7.03;3.27;;;;;;;6.30;64.81;103475.38;5041421;27;96907;-52
2023/12/16 07:15:00;;;;;;;7.40;3.57;;;;;;;6.25;64.96;103466.81;5042603;27;103057;-52
2023/12/16 07:17:26;;;;;;;5.50;2.40;;;;;;;6.22;64.78;103471.16;5041009;27;97162;-51
2023/12/16 07:19:51;;;;;;;7.23;2.80;;;;;;;6.21;64.90;103480.63;5043128;27;97054;-51
2023/12/16 07:22:17;;;;;;;6.70;2.70;;;;;;;6.16;64.87;103475.59;5042386;27;96692;-51
2023/12/16 07:24:43;;;;;;;6.17;2.20;;;;;;;6.15;64.96;103473.25;5041205;27;97012;-51
2023/12/16 07:27:08;;;;;;;8.43;2.87;;;;;;;6.14;64.93;103479.94;5042991;27;97129;-52
2023/12/16 07:29:34;;;;;;;6.73;2.33;;;;;;;6.09;64.92;103485.91;5042499;27;97057;-51
2023/12/16 07:32:00;;;;;;;3.97;2.03;;;;;;;6.11;65.01;103481.53;5040691;27;97089;-52
2023/12/16 07:34:25;;;;;;;8.50;2.77;;;;;;;6.15;64.98;103487.00;5042770;27;98761;-51
2023/12/16 07:36:50;;;;;;;8.57;2.20;;;;;;;6.14;64.90;103477.19;5015710;27;99688;-51
2023/12/16 07:39:16;;;;;;;5.50;2.33;;;;;;;6.17;64.86;103481.88;5043488;27;96881;-52
2023/12/16 07:41:41;;;;;;;9.90;2.53;;;;;;;6.16;64.87;103466.56;5041846;27;97774;-51
2023/12/16 07:44:06;;;;;;;6.07;2.37;;;;;;;6.19;64.80;103468.47;5042409;27;104294;-51
2023/12/16 07:46:31;;;;;;;8.60;2.70;;;;;;;6.19;64.89;103469.25;5040395;27;96747;-51
2023/12/16 07:48:57;;;;;;;5.20;1.80;;;;;;;6.19;64.80;103463.75;5040697;27;107119;-51
2023/12/16 07:51:25;;;;;;;4.40;2.33;;;;;;;6.21;64.88;103466.09;5041341;27;101902;-52
2023/12/16 07:53:51;;;;;;;8.30;2.67;;;;;;;6.22;64.91;103467.63;5043196;27;98497;-51
2023/12/16 07:56:27;;;;;;;8.90;2.50;;;;;;;6.21;64.58;103455.88;5041281;27;97194;-50
2023/12/16 07:58:53;;;;;;;12.80;2.90;;;;;;;6.18;64.85;103445.72;5042186;27;96747;-51
2023/12/16 08:01:19;;;;;;;5.10;2.90;;;;;;;6.21;64.80;103444.88;5042775;27;97143;-50
2023/12/16 08:03:45;;;;;;;7.10;2.80;;;;;;;6.21;64.81;103444.09;5040582;27;97948;-51
2023/12/16 08:06:11;;;;;;;7.27;2.47;;;;;;;6.23;64.73;103441.69;5042143;27;96999;-52
2023/12/16 08:08:38;;;;;;;6.87;2.90;;;;;;;6.22;64.68;103440.13;5040944;27;97103;-50
2023/12/16 08:11:04;;;;;;;6.80;2.50;;;;;;;6.23;64.70;103437.00;5041908;27;96979;-51
2023/12/16 08:13:29;;;;;;;6.50;2.73;;;;;;;6.24;64.97;103459.75;5041127;27;97223;-52
2023/12/16 08:15:55;;;;;;;8.43;2.50;;;;;;;6.27;64.84;103440.44;5041727;27;97460;-51
2023/12/16 08:18:20;;;;;;;9.40;2.67;;;;;;;6.27;64.75;103448.69;5043025;27;97104;-51
2023/12/16 08:20:45;;;;;;;8.43;2.50;;;;;;;6.31;64.73;103449.41;5042712;27;97229;-51
2023/12/16 08:23:11;;;;;;;4.50;2.30;;;;;;;6.39;64.74;103460.31;5040942;27;102179;-51
2023/12/16 08:25:36;;;;;;;5.73;2.23;;;;;;;6.47;64.74;103457.00;5040131;27;98375;-50
2023/12/16 08:28:01;;;;;;;10.50;2.60;;;;;;;6.55;64.51;103466.69;5041604;27;97153;-51
2023/12/16 08:30:27;;;;;;;7.67;2.43;;;;;;;6.59;64.60;103461.88;5040446;27;97182;-50
2023/12/16 08:32:53;;;;;;;7.33;2.47;;;;;;;6.65;64.51;103454.75;5042468;27;97813;-51
2023/12/16 08:35:18;;;;;;;3.97;2.13;;;;;;;6.71;64.40;103455.03;5042642;27;97182;-52
2023/12/16 08:37:43;;;;;;;5.03;1.97;;;;;;;6.76;64.25;103455.34;5039874;27;97213;-52
2023/12/16 08:40:10;;;;;;;4.53;1.93;;;;;;;6.81;64.42;103457.56;5039866;27;96930;-51
2023/12/16 08:42:35;;;;;;;9.37;2.47;;;;;;;6.85;64.27;103466.53;5040308;27;97813;-51
2023/12/16 08:45:02;;;;;;;3.70;2.20;;;;;;;6.89;64.18;103470.03;5041673;27;97176;-52
2023/12/16 08:47:28;;;;;;;10.27;3.23;;;;;;;6.92;64.13;103466.41;5038651;27;96705;-50
2023/12/16 08:49:53;;;;;;;7.40;2.63;;;;;;;7.02;64.15;103470.94;5040786;27;97299;-51
2023/12/16 08:52:18;;;;;;;9.30;2.70;;;;;;;7.11;64.11;103458.59;5040061;27;98035;-51
2023/12/16 08:54:44;;;;;;;11.20;2.30;;;;;;;7.18;64.09;103455.69;5039455;27;96764;-50
2023/12/16 08:57:09;;;;;;;8.47;2.00;;;;;;;7.24;64.07;103446.50;5041724;27;97124;-52
2023/12/16 08:59:35;;;;;;;2.67;1.87;;;;;;;7.27;63.84;103447.66;5040206;27;97054;-51
2023/12/16 09:02:03;;;;;;;7.30;2.20;;;;;;;7.27;63.89;103442.13;5039382;27;97757;-51
2023/12/16 09:04:28;;;;;;;5.93;2.17;;;;;;;7.31;63.91;103459.34;5040818;27;98549;-50
2023/12/16 09:06:54;;;;;;;8.10;2.23;;;;;;;7.33;63.77;103451.44;5041215;27;104011;-51
2023/12/16 09:09:20;;;;;;;7.83;2.50;;;;;;;7.36;63.78;103462.38;5040928;27;97043;-51
2023/12/16 09:11:45;;;;;;;7.07;2.30;;;;;;;7.39;63.75;103466.25;5039306;27;97472;-51
2023/12/16 09:14:11;;;;;;;3.40;1.60;;;;;;;7.42;63.70;103477.19;5037518;27;98098;-51
2023/12/16 09:16:36;;;;;;;10.77;2.30;;;;;;;7.43;63.58;103487.03;5039267;27;96858;-51
2023/12/16 09:19:03;;;;;;;9.63;2.30;;;;;;;7.43;63.70;103489.00;5040519;27;97280;-51
2023/12/16 09:21:28;;;;;;;6.20;2.20;;;;;;;7.44;63.67;103496.06;5039642;27;97689;-51
2023/12/16 09:23:55;;;;;;;7.83;2.80;;;;;;;7.46;63.81;103491.69;5034348;27;96933;-50
2023/12/16 09:26:21;;;;;;;12.03;3.00;;;;;;;7.46;63.67;103488.94;5039461;27;96797;-51
2023/12/16 09:28:48;;;;;;;9.83;2.83;;;;;;;7.47;63.88;103476.69;5036919;27;97197;-51
2023/12/16 09:31:13;;;;;;;10.37;3.00;;;;;;;7.49;63.73;103473.50;5039835;27;97878;-52
2023/12/16 09:33:38;;;;;;;10.37;2.63;;;;;;;7.53;63.73;103499.78;5038668;27;97308;-51
2023/12/16 09:36:04;;;;;;;5.37;2.70;;;;;;;7.52;63.62;103478.19;5040435;27;97140;-50
2023/12/16 09:38:29;;;;;;;8.43;3.07;;;;;;;7.52;63.50;103472.66;5040758;27;97321;-50
2023/12/16 09:40:56;;;;;;;7.73;3.37;;;;;;;7.53;63.72;103460.47;5042503;27;97118;-51
2023/12/16 09:43:22;;;;;;;8.97;3.00;;;;;;;7.57;63.48;103467.41;5043949;27;97183;-52
2023/12/16 09:45:47;;;;;;;9.07;2.60;;;;;;;7.59;63.55;103475.28;5042027;27;96836;-51
2023/12/16 09:48:17;;;;;;;6.53;2.30;;;;;;;7.64;63.58;103478.28;5043863;27;96946;-51
2023/12/16 09:50:43;;;;;;;8.70;3.23;;;;;;;7.67;63.55;103471.16;5042071;27;97459;-51
2023/12/16 09:53:09;;;;;;;7.83;2.60;;;;;;;7.69;63.54;103469.53;5044091;27;97082;-51
2023/12/16 09:55:34;;;;;;;9.67;2.70;;;;;;;7.71;63.65;103471.84;5041260;27;96722;-51
2023/12/16 09:58:00;;;;;;;13.10;3.77;;;;;;;7.75;63.48;103473.31;5044727;27;97594;-51
2023/12/16 10:00:30;;;;;;;8.27;3.10;;;;;;;7.81;63.30;103487.38;5043002;27;97875;-50
2023/12/16 10:02:57;;;;;;;5.80;3.80;;;;;;;7.82;63.59;103473.16;5041541;27;97210;-51
2023/12/16 10:05:26;;;;;;;8.77;3.60;;;;;;;7.82;63.44;103462.13;5043211;27;97058;-51
2023/12/16 10:07:57;;;;;;;7.50;3.10;;;;;;;7.91;63.28;103458.78;5042454;27;96842;-51
2023/12/16 10:10:22;;;;;;;5.87;3.33;;;;;;;7.92;63.47;103449.31;5042970;27;96805;-51
2023/12/16 10:12:47;;;;;;;10.87;3.47;;;;;;;7.96;63.47;103450.00;5040929;27;96619;-51
2023/12/16 10:15:28;;;;;;;15.13;3.50;;;;;;;8.02;62.92;103453.00;5042603;27;97079;-52
2023/12/16 10:17:53;;;;;;;7.27;3.30;;;;;;;8.02;63.15;103442.75;5041388;27;96811;-51
2023/12/16 10:20:19;;;;;;;8.93;3.27;;;;;;;8.06;63.35;103443.44;5042577;27;110356;-51
2023/12/16 10:22:45;;;;;;;7.53;3.30;;;;;;;8.11;63.32;103442.16;5041926;27;97166;-52
2023/12/16 10:25:11;;;;;;;12.43;3.43;;;;;;;8.13;63.11;103448.81;5044152;27;96855;-52
2023/12/16 10:27:36;;;;;;;9.10;3.23;;;;;;;8.16;63.33;103445.19;5043386;27;97345;-52
2023/12/16 10:30:03;;;;;;;6.90;2.90;;;;;;;8.19;63.29;103440.81;5043670;27;96935;-52
2023/12/16 10:32:29;;;;;;;10.07;3.27;;;;;;;8.24;63.37;103432.00;5043497;27;96996;-51
2023/12/16 10:34:55;;;;;;;5.70;3.20;;;;;;;8.25;63.34;103420.53;5041716;27;97148;-51
2023/12/16 10:37:21;;;;;;;7.90;3.10;;;;;;;8.25;63.15;103408.75;5023192;27;97249;-51
2023/12/16 10:39:46;;;;;;;11.40;2.90;;;;;;;8.25;63.06;103406.75;5039760;27;96804;-52
2023/12/16 10:42:12;;;;;;;11.90;3.27;;;;;;;8.26;63.04;103396.50;5041744;27;97805;-52
2023/12/16 10:44:37;;;;;;;7.10;2.83;;;;;;;8.27;63.13;103398.06;5040372;27;97212;-51
2023/12/16 10:47:08;;;;;;;16.20;2.77;;;;;;;8.26;62.96;103390.97;5042525;27;97131;-51
2023/12/16 10:49:37;;;;;;;10.83;2.50;;;;;;;8.26;63.31;103391.75;5039587;27;102625;-51
2023/12/16 10:52:03;;;;;;;6.13;2.33;;;;;;;8.25;63.03;103387.44;5040469;27;97100;-52
2023/12/16 10:54:33;;;;;;;11.80;3.50;;;;;;;8.29;62.94;103385.38;5040232;27;97051;-52
2023/12/16 10:57:27;;;;;;;11.07;3.10;;;;;;;8.31;62.67;103382.97;5038924;27;96829;-52
2023/12/16 11:00:05;;;;;;;10.00;2.80;;;;;;;8.32;63.04;103390.00;5039365;27;97340;-51
2023/12/16 11:02:32;;;;;;;5.17;2.10;;;;;;;8.30;63.04;103388.91;5039273;27;96972;-51
2023/12/16 11:05:13;;;;;;;8.20;2.90;;;;;;;8.31;62.87;103371.16;5040774;27;97081;-52
2023/12/16 11:07:39;;;;;;;8.67;2.90;;;;;;;8.30;63.20;103381.41;5039145;27;97092;-52
2023/12/16 11:10:08;;;;;;;13.40;2.57;;;;;;;8.34;63.40;103382.06;5041962;27;98044;-51
2023/12/16 11:12:36;;;;;;;9.47;3.63;;;;;;;8.34;63.25;103376.56;5041929;27;96685;-51
2023/12/16 11:15:04;;;;;;;11.33;3.10;;;;;;;8.32;63.31;103373.47;5040891;27;96976;-51
2023/12/16 11:17:33;;;;;;;6.97;2.77;;;;;;;8.34;63.36;103365.53;5039542;27;96645;-51
2023/12/16 11:20:06;;;;;;;9.63;3.40;;;;;;;8.38;63.14;103354.41;5038473;27;97508;-51
2023/12/16 11:22:32;;;;;;;7.77;3.20;;;;;;;8.39;63.06;103356.72;5040815;27;97554;-52